Decoded Metar for YBMA (MOUNT ISA in AUSTRALIA) (IATA:ISA) | Meteo·Mobile Aviation Weather
aviador You're here:

YBMA Decoded Metar

MOUNT ISA in AUSTRALIA
Report Time2018-08-21 22:00:00
UTC Time2018-08-21 22:19:49
Flight Rules vfr VFR
WindCalm
Visibility9999 m
Phenomena:N/A
Clouds:N/A
Expected CloudBase > 6,400 ft AGL from Temp-Dew spread
CeilingNone
Temp07°C (ISA -6)
Dew Point-9°C (31% RH)
AAT4.0°C
QNH1017 hPa
Density Alt351 ft
Elevation1,129 ft
Report Wrong Elevation
Raw Report
YBMA 212200Z AUTO 00000KT 9999 // NCD 07/M09 Q1017
RF00.0/000.0=

Extra information for YBMA:More info

Metar Taf Metar & Taf Last 4 Metars F.Rules Stats Wind Profile Meteogram Temp Stats Airport Information Weather charts Add Link Nearby VenuesMetar ALERT Operation Metar Decoded Social comments